createdAt,value
2023-01-30T00:02:00.872Z,69.41
2023-01-30T00:04:30.489Z,69.32
2023-01-30T00:06:58.732Z,69.40
2023-01-30T00:09:34.277Z,69.83
2023-01-30T00:12:02.439Z,70.08
2023-01-30T00:14:31.075Z,70.23
2023-01-30T00:17:01.664Z,70.27
2023-01-30T00:19:29.880Z,70.49
2023-01-30T00:21:58.083Z,70.61
2023-01-30T00:24:26.323Z,70.81
2023-01-30T00:26:55.424Z,70.88
2023-01-30T00:29:25.837Z,71.03
2023-01-30T00:31:56.282Z,71.13
2023-01-30T00:34:24.511Z,71.43
2023-01-30T00:37:07.174Z,71.66
2023-01-30T00:39:36.656Z,72.00
2023-01-30T00:42:24.301Z,72.12
2023-01-30T00:45:11.010Z,72.07
2023-01-30T00:47:39.481Z,71.90
2023-01-30T00:50:08.010Z,71.94
2023-01-30T00:52:38.858Z,71.96
2023-01-30T00:55:07.605Z,72.04
2023-01-30T00:57:35.789Z,71.96
2023-01-30T01:00:05.612Z,71.86
2023-01-30T01:02:34.228Z,71.86
2023-01-30T01:05:02.508Z,71.89
2023-01-30T01:07:33.859Z,72.02
2023-01-30T01:10:06.434Z,72.02
2023-01-30T01:12:34.713Z,72.02
2023-01-30T01:15:03.126Z,72.07
2023-01-30T01:17:31.475Z,71.99
2023-01-30T01:19:59.895Z,71.93
2023-01-30T01:22:28.098Z,71.81
2023-01-30T01:24:58.847Z,71.87
2023-01-30T01:27:27.195Z,71.92
2023-01-30T01:29:55.379Z,71.87
2023-01-30T01:32:24.095Z,72.10
2023-01-30T01:34:52.282Z,72.10
2023-01-30T01:37:21.866Z,72.25
2023-01-30T01:40:08.569Z,72.06
2023-01-30T01:42:38.563Z,71.97
2023-01-30T01:45:11.641Z,71.70
2023-01-30T01:48:05.578Z,71.67
2023-01-30T01:50:52.651Z,71.63
2023-01-30T01:53:23.216Z,71.74
2023-01-30T01:55:52.689Z,71.70
2023-01-30T01:58:23.612Z,71.88
2023-01-30T02:00:53.085Z,72.02
2023-01-30T02:03:23.449Z,72.16
2023-01-30T02:05:53.486Z,72.14
2023-01-30T04:30:50.177Z,76.20
2023-01-30T04:33:52.769Z,75.20
2023-01-30T04:36:21.568Z,75.07
2023-01-30T04:38:50.949Z,74.80
2023-01-30T04:42:38.224Z,74.43
2023-01-30T04:45:30.334Z,73.79
2023-01-30T04:48:00.110Z,73.68
2023-01-30T11:21:27.022Z,56.89
2023-01-30T11:24:06.050Z,55.25
2023-01-30T11:26:46.770Z,54.99
2023-01-30T11:29:27.008Z,54.91
2023-01-30T11:31:56.422Z,54.94
2023-01-30T11:34:25.880Z,54.93
2023-01-30T11:37:16.737Z,54.29
2023-01-30T11:39:48.999Z,54.25
2023-01-30T11:42:17.807Z,54.42
2023-01-30T11:44:46.131Z,54.29
2023-01-30T11:47:25.833Z,54.04
2023-01-30T11:49:58.371Z,53.45
2023-01-30T11:52:37.048Z,53.38
2023-01-30T11:55:11.689Z,52.98
2023-01-30T11:57:42.080Z,52.54
2023-01-30T12:00:23.990Z,52.38
2023-01-30T12:02:53.946Z,52.01
2023-01-30T12:05:29.566Z,52.24
2023-01-30T12:08:31.283Z,52.58
2023-01-30T12:11:47.568Z,52.26
2023-01-30T12:14:38.455Z,52.50
2023-01-30T12:17:16.381Z,52.65
2023-01-30T12:20:33.164Z,52.36
2023-01-30T12:23:13.913Z,52.70
2023-01-30T12:26:06.121Z,53.20
2023-01-30T12:28:47.584Z,52.80
2023-01-30T12:31:23.547Z,52.36
2023-01-30T12:33:56.389Z,52.56
2023-01-30T12:38:04.411Z,52.18
2023-01-30T12:40:45.973Z,51.88
2023-01-30T12:45:42.998Z,51.57
2023-01-30T12:48:44.136Z,51.65
2023-01-30T12:51:54.824Z,51.61
2023-01-30T12:54:23.058Z,51.82
2023-01-30T12:57:07.441Z,52.10
2023-01-30T13:00:04.558Z,51.92
2023-01-30T13:02:42.075Z,52.21
2023-01-30T13:05:22.436Z,52.75
2023-01-30T13:08:33.819Z,52.71
2023-01-30T13:11:15.179Z,52.89
2023-01-30T13:13:52.981Z,53.02
2023-01-30T13:16:50.017Z,53.30
2023-01-30T13:19:52.348Z,53.45
2023-01-30T13:22:30.575Z,53.73
2023-01-30T13:25:21.279Z,53.87
2023-01-30T13:27:56.298Z,53.75
2023-01-30T13:30:26.917Z,53.45
2023-01-30T13:32:57.870Z,54.17
2023-01-30T13:35:33.114Z,54.66
2023-01-30T13:38:01.761Z,54.72
2023-01-30T13:40:39.012Z,54.61
2023-01-30T13:43:23.134Z,54.60
2023-01-30T13:45:52.672Z,54.50
2023-01-30T13:48:45.628Z,54.97
2023-01-30T13:51:42.293Z,55.18
2023-01-30T13:54:23.060Z,55.03
2023-01-30T13:56:56.984Z,55.17
2023-01-30T13:59:30.853Z,55.44
2023-01-30T14:02:07.297Z,55.83
2023-01-30T14:04:42.395Z,55.74
2023-01-30T17:17:01.828Z,59.31
2023-01-30T17:19:30.795Z,58.48
2023-01-30T17:21:59.385Z,58.24
2023-01-30T17:24:27.954Z,58.25
2023-01-30T17:27:02.575Z,58.02
2023-01-30T17:29:42.370Z,58.33
2023-01-30T17:32:15.602Z,58.30
2023-01-30T17:34:45.449Z,58.15
2023-01-30T17:37:18.598Z,58.62
2023-01-30T17:39:46.945Z,58.81
2023-01-30T17:42:17.986Z,58.59
2023-01-30T17:44:46.801Z,58.46
2023-01-30T17:47:15.272Z,58.68
2023-01-30T17:49:45.301Z,58.73
2023-01-30T17:52:14.053Z,58.47
2023-01-30T17:54:42.317Z,58.63
2023-01-30T17:57:12.168Z,59.10
2023-01-30T17:59:40.214Z,59.47
2023-01-30T18:02:11.606Z,59.47
2023-01-30T18:04:40.217Z,59.32
2023-01-30T18:07:11.843Z,59.44
2023-01-30T18:09:39.941Z,59.30
2023-01-30T18:12:08.222Z,59.34
2023-01-30T18:14:36.726Z,59.05
2023-01-30T18:17:07.118Z,58.89
2023-01-30T18:19:35.905Z,58.88
2023-01-30T18:22:04.748Z,59.15
2023-01-30T18:24:34.431Z,58.88
2023-01-30T18:27:05.404Z,59.06
2023-01-30T18:29:37.469Z,58.83
2023-01-30T18:32:07.426Z,58.71
2023-01-30T18:34:37.805Z,58.85
2023-01-30T18:37:18.516Z,58.75
2023-01-30T18:39:47.854Z,58.59
2023-01-30T18:42:17.994Z,58.58
2023-01-30T18:45:03.664Z,58.95
2023-01-30T18:47:35.641Z,59.01
2023-01-30T18:50:07.716Z,59.20
2023-01-30T18:52:36.147Z,59.11
2023-01-30T18:55:06.842Z,59.22
2023-01-30T18:57:37.994Z,59.37
2023-01-30T19:00:06.746Z,59.32
2023-01-30T19:02:40.605Z,58.86
2023-01-30T19:05:09.455Z,58.78
2023-01-30T19:07:37.696Z,58.68
2023-01-30T19:10:07.847Z,58.23
2023-01-30T19:12:55.507Z,58.14
2023-01-30T22:07:59.998Z,58.32
2023-01-30T22:10:29.159Z,56.96
2023-01-30T22:12:57.477Z,56.89
2023-01-30T22:15:26.485Z,56.66
2023-01-30T22:17:55.244Z,56.63
2023-01-30T22:20:24.042Z,56.55
2023-01-30T22:22:52.433Z,56.40
2023-01-30T22:25:20.945Z,56.64
2023-01-30T22:27:49.574Z,56.74
2023-01-30T22:30:18.368Z,56.54
2023-01-30T22:32:46.549Z,56.42
2023-01-30T22:35:14.871Z,56.45
2023-01-30T22:37:43.094Z,56.51
2023-01-30T22:40:11.635Z,56.79
2023-01-30T22:42:46.676Z,57.12
2023-01-30T22:45:15.131Z,57.04
2023-01-30T22:47:43.287Z,57.27
2023-01-30T22:50:11.752Z,57.28
2023-01-30T22:52:40.584Z,57.20
2023-01-30T22:55:09.113Z,57.03
2023-01-30T22:57:37.284Z,57.03
2023-01-30T23:00:06.016Z,57.24
2023-01-30T23:02:34.702Z,57.28
2023-01-30T23:05:03.269Z,57.18
2023-01-30T23:07:34.798Z,57.16
2023-01-30T23:10:03.045Z,57.15
2023-01-30T23:12:50.379Z,57.15
2023-01-30T23:15:19.112Z,57.31
2023-01-30T23:18:06.422Z,57.31
2023-01-30T23:20:34.855Z,57.38
2023-01-30T23:23:06.958Z,57.50
2023-01-30T23:25:40.336Z,57.40
2023-01-30T23:28:09.023Z,57.42
2023-01-30T23:30:40.327Z,57.50
2023-01-30T23:33:09.333Z,57.39
2023-01-30T23:35:37.830Z,57.38
2023-01-30T23:38:22.124Z,57.38
2023-01-30T23:40:51.197Z,57.62
2023-01-30T23:43:19.550Z,57.48
2023-01-30T23:45:47.857Z,57.66
2023-01-30T23:48:16.410Z,57.53
2023-01-30T23:50:44.673Z,57.29
2023-01-30T23:53:12.879Z,57.29
2023-01-30T23:55:49.855Z,57.34
2023-01-30T23:58:18.079Z,57.46
